Tonalea, AZ

10:03 AM MST on August 22, 2014 (GMT -0700)
Winslow-Lindbergh Regional | Change Station
CLOSE
Current Station
Airport
Location: Winslow,
Elevation: 4882 ft
Nearby Weather Stations

Elev 4882 ft 35.03 °N, 110.72 °W | Updated 7 minutes ago

Clear
Clear
73 °F
Feels Like 73 °F
N
5
Wind Variable Wind from Variable

Today
High -- | Low -- °F
--% Chance of Precip.
Yesterday
High -- | Low -- °F
Precip. -- in
5:47 AM 7:04 PM
Waning Crescent, 7% visible
Pressure 29.99 in
Visibility 10.0 miles
Clouds Clear
Dew Point 51 °F
Humidity 46%
Rainfall 0.00 in
Snow Depth Not available.
UV 8 out of 12
Pollen 4.90 out of 12
Air Quality Not available.
Flu Activity Not available.
METAR KINW 221656Z AUTO VRB04KT 10SM CLR 23/11 A3018 RMK AO2 SLP156 T02280106

More Conditions Fewer Conditions

Pressure 29.99 in
Visibility 10.0 miles
Clouds Clear
Dew Point 51 °F
Humidity 46%
Rainfall 0.00 in
Snow Depth Not available.
UV 8 out of 12
Pollen 4.90 out of 12
Air Quality Not available.
Flu Activity Not available.
METAR KINW 221656Z AUTO VRB04KT 10SM CLR 23/11 A3018 RMK AO2 SLP156 T02280106

More Conditions Fewer Conditions

10-Day Weather Forecast

Almanac

Astronomy

Aug. 22, 2014 Rise Set
Actual Time 5:47 AM MST 7:04 PM MST
Civil Twilight 5:20 AM MST 7:31 PM MST
Nautical Twilight 4:48 AM MST 8:02 PM MST
Astronomical Twilight 4:15 AM MST 8:36 PM MST
Moon 3:15 AM MST 5:13 PM MST
Length of Visible Light 14h 10m
Length of Day
13h 16m
Tomorrow will be 2m 5s shorter.
Waning Crescent, 7% of the Moon is Illuminated
Today
Waning Crescent
Aug 25
New
Sep 2
First Quarter
Sep 8
Full
Sep 15
Last Quarter

Today's Extremes

State Highs State Lows

Community

WunderPhotos

Upload Photos

1,746,203 photos uploaded!

Nearby

Snow Depth

Station Depth Elevation
Snowslide Canyon 1 in 9730 ft
Mormon Mountain 0 in 7500 ft
White Horse Lake 0 in 7180 ft
Promontory 0 in 7930 ft
Workman Creek 1 in 6900 ft

Earthquake Activity

City Distance Mag. Time & Date
No recent earthquake activity has been reported nearby.
Minimum magnitude displayed is 2.5.

Coastal Water Temperatures

Place Temperature
No Stations Reporting

Nearby Weather Stations